UNNT/OVB METAR and TAF weather

Enter ICAO airport designator
Station Type Date Time Source
UNNT METAR 2020/06/05 11:30 UTC NOAA

UNNT 051130Z 36002MPS 9999 SCT046CB 12/08 Q1009 R07/290160 R16/290160 NOSIG RMK QFE747/0996


Station Type Date Time Source
UNNT Decoded METAR 2020/06/05 11:30 UTC NOAA

Station name not available
Jun 05, 2020 - 07:30 AM EDT / 2020.06.05 1130 UTC
Wind: from the N (360 degrees) at 4 MPH (4 KT):0
Visibility: greater than 7 mile(s):0
Sky conditions: partly cloudy
Weather: Cumulonimbus clouds observed
Temperature: 53 F (12 C)
Dew Point: 46 F (8 C)
Relative Humidity: 76%
Pressure (altimeter): 29.80 in. Hg (1009 hPa)
ob: UNNT 051130Z 36002MPS 9999 SCT046CB 12/08 Q1009 R07/290160 R16/290160 NOSIG RMK QFE747/0996
cycle: 11

Station Type Date Time Source
UNNT TAF 2020/06/05 12:21 UTC NOAA

TAF UNNT 051100Z 0512/0612 32003G08MPS 9999 BKN040CB
TEMPO 0512/0515 01006G12MPS -TSRA
FM052200 24003G08MPS 8000 -SHRA BKN016CB
TEMPO 0609/0612 33003G08MPS

Example: see airport list